Time;durP1;ratioP1;P1;durP2;ratioP2;P2;SDS_P1;SDS_P2;PMS_P1;PMS_P2;Temp;Humidity;BMP_temperature;BMP_pressure;BME280_temperature;BME280_humidity;BME280_pressure;Samples;Min_cycle;Max_cycle;Signal;HPM_P1;HPM_P2
2021/06/06 00:00:45;;;;;;;31.80;28.53;;;19.00;99.90;;;;;;5041706;28;20970;-82
2021/06/06 00:03:19;;;;;;;27.60;24.80;;;19.00;99.90;;;;;;5039427;28;20213;-83
2021/06/06 00:05:57;;;;;;;25.70;23.27;;;19.00;99.90;;;;;;5039643;28;20431;-83
2021/06/06 00:08:25;;;;;;;29.33;26.33;;;19.00;99.90;;;;;;5031459;28;20439;-83
2021/06/06 00:10:54;;;;;;;24.87;22.20;;;19.00;99.90;;;;;;5040935;28;20955;-82
2021/06/06 00:13:20;;;;;;;28.00;25.20;;;19.00;99.90;;;;;;5027028;28;20547;-82
2021/06/06 00:15:46;;;;;;;29.27;26.17;;;19.00;99.90;;;;;;5057725;28;20428;-84
2021/06/06 00:18:12;;;;;;;28.47;25.50;;;18.90;99.90;;;;;;5061161;28;20423;-82
2021/06/06 00:20:39;;;;;;;26.80;24.20;;;18.90;99.90;;;;;;5043883;28;20290;-82
2021/06/06 00:23:06;;;;;;;28.87;25.23;;;18.90;99.90;;;;;;5050646;28;21511;-82
2021/06/06 00:25:32;;;;;;;30.00;26.90;;;18.90;99.90;;;;;;5062151;28;20428;-82
2021/06/06 00:27:58;;;;;;;28.20;25.30;;;18.90;99.90;;;;;;5061003;28;21937;-82
2021/06/06 00:30:24;;;;;;;28.00;25.17;;;18.90;99.90;;;;;;5044945;28;20443;-82
2021/06/06 00:32:50;;;;;;;28.93;26.00;;;18.90;99.90;;;;;;5061472;28;20439;-82
2021/06/06 00:35:16;;;;;;;30.23;27.03;;;18.90;99.90;;;;;;5059556;28;20434;-81
2021/06/06 00:37:42;;;;;;;30.60;27.40;;;19.00;99.90;;;;;;5061019;28;21333;-83
2021/06/06 00:40:10;;;;;;;32.27;28.77;;;18.90;99.90;;;;;;5061795;28;20431;-82
2021/06/06 00:42:36;;;;;;;35.23;30.37;;;18.80;99.90;;;;;;5061006;28;20467;-83
2021/06/06 00:45:07;;;;;;;30.67;27.67;;;18.80;99.90;;;;;;5061923;28;20431;-83
2021/06/06 00:47:32;;;;;;;29.87;26.87;;;18.80;99.90;;;;;;5061520;28;20717;-83
2021/06/06 00:49:58;;;;;;;30.50;26.97;;;18.80;99.90;;;;;;5062021;28;20442;-83
2021/06/06 00:52:25;;;;;;;31.13;27.93;;;18.90;99.90;;;;;;5060403;28;20212;-83
2021/06/06 00:54:53;;;;;;;31.70;28.33;;;18.80;99.90;;;;;;5061065;28;20443;-83
2021/06/06 00:57:24;;;;;;;30.17;26.97;;;18.80;99.90;;;;;;5061411;28;20430;-83
2021/06/06 01:00:29;;;;;;;30.67;27.53;;;18.80;99.90;;;;;;5064397;28;20436;-83
2021/06/06 01:02:56;;;;;;;32.90;29.50;;;18.80;99.90;;;;;;5064449;28;20786;-83
2021/06/06 01:05:45;;;;;;;37.67;33.40;;;18.80;99.90;;;;;;5065766;28;20439;-83
2021/06/06 01:08:18;;;;;;;38.67;34.17;;;18.80;99.90;;;;;;5053726;28;20423;-83
2021/06/06 01:10:45;;;;;;;34.97;31.00;;;18.80;99.90;;;;;;5064340;28;20898;-83
2021/06/06 01:13:18;;;;;;;32.50;28.23;;;18.80;99.90;;;;;;5063493;28;20924;-83
2021/06/06 01:15:47;;;;;;;39.20;33.00;;;18.80;99.90;;;;;;5065194;28;20430;-83
2021/06/06 01:18:35;;;;;;;40.23;34.60;;;18.80;99.90;;;;;;5047516;28;20770;-84
2021/06/06 01:21:45;;;;;;;33.83;30.20;;;18.80;99.90;;;;;;5063578;28;20447;-83
2021/06/06 01:24:40;;;;;;;33.43;29.30;;;18.80;99.90;;;;;;5043282;28;20431;-83
2021/06/06 01:27:13;;;;;;;35.73;31.23;;;18.80;99.90;;;;;;5065459;28;20431;-83
2021/06/06 01:29:49;;;;;;;44.53;36.17;;;18.80;99.90;;;;;;5064893;28;20518;-83
2021/06/06 01:32:31;;;;;;;38.00;32.97;;;18.80;99.90;;;;;;5064130;28;20454;-83
2021/06/06 01:35:07;;;;;;;36.73;32.30;;;18.80;99.90;;;;;;5054529;28;20427;-84
2021/06/06 01:37:37;;;;;;;45.00;39.30;;;18.80;99.90;;;;;;5060108;28;20818;-83
2021/06/06 01:40:13;;;;;;;53.50;40.23;;;18.80;99.90;;;;;;5064112;28;20925;-83
2021/06/06 01:42:42;;;;;;;49.70;41.33;;;18.80;99.90;;;;;;5052137;28;20942;-83
2021/06/06 01:45:13;;;;;;;53.77;43.03;;;18.80;99.90;;;;;;5064424;28;20415;-83
2021/06/06 01:47:41;;;;;;;54.17;42.90;;;18.70;99.90;;;;;;5064635;28;20484;-83
2021/06/06 01:50:14;;;;;;;59.40;45.70;;;18.60;99.90;;;;;;5064116;28;20448;-82
2021/06/06 01:52:42;;;;;;;58.57;44.60;;;18.60;99.90;;;;;;5062742;28;20808;-83
2021/06/06 01:55:12;;;;;;;53.43;43.00;;;18.50;99.90;;;;;;5045832;28;20438;-82
2021/06/06 01:57:40;;;;;;;59.03;46.13;;;18.50;99.90;;;;;;5064785;28;20431;-83
2021/06/06 02:00:16;;;;;;;61.47;48.13;;;18.40;99.90;;;;;;5064129;28;20516;-83
2021/06/06 02:02:42;;;;;;;62.00;47.30;;;18.40;99.90;;;;;;5063137;28;20480;-82
2021/06/06 02:05:16;;;;;;;60.07;45.83;;;18.30;99.90;;;;;;5063901;28;20418;-83
2021/06/06 02:07:44;;;;;;;64.53;48.20;;;18.20;99.90;;;;;;5047780;28;20264;-82
2021/06/06 02:10:37;;;;;;;82.17;55.00;;;18.20;99.90;;;;;;5045601;28;20489;-83
2021/06/06 02:13:08;;;;;;;84.13;55.73;;;18.20;99.90;;;;;;5063099;28;20504;-83
2021/06/06 02:15:37;;;;;;;67.97;48.73;;;18.20;99.90;;;;;;5065193;28;20458;-83
2021/06/06 02:18:05;;;;;;;73.53;54.33;;;18.20;99.90;;;;;;5064996;28;20821;-83
2021/06/06 02:20:36;;;;;;;74.70;51.23;;;18.10;99.90;;;;;;5062807;28;20469;-83
2021/06/06 02:23:03;;;;;;;72.23;50.97;;;18.10;99.90;;;;;;5063555;28;20831;-83
2021/06/06 02:25:28;;;;;;;70.77;49.97;;;18.10;99.90;;;;;;5063934;28;20428;-83
2021/06/06 02:28:26;;;;;;;81.93;56.20;;;18.00;99.90;;;;;;5064071;28;22572;-83
2021/06/06 02:31:07;;;;;;;69.57;48.67;;;18.00;99.90;;;;;;5050690;28;20188;-83
2021/06/06 02:33:56;;;;;;;72.93;52.10;;;18.00;99.90;;;;;;5063670;28;20425;-83
2021/06/06 02:36:23;;;;;;;81.00;55.80;;;17.90;99.90;;;;;;5052805;28;20427;-83
2021/06/06 02:38:58;;;;;;;80.30;51.93;;;17.90;99.90;;;;;;5063444;28;20435;-83
2021/06/06 02:41:33;;;;;;;76.63;54.37;;;17.90;99.90;;;;;;5063660;28;20427;-84
2021/06/06 02:44:17;;;;;;;66.43;46.10;;;17.90;99.90;;;;;;5063221;28;20532;-84
2021/06/06 02:46:45;;;;;;;81.10;55.30;;;17.90;99.90;;;;;;5062546;28;20418;-84
2021/06/06 02:49:28;;;;;;;79.10;57.10;;;17.90;99.90;;;;;;5060773;28;20420;-84
2021/06/06 02:52:09;;;;;;;76.57;50.23;;;17.80;99.90;;;;;;5061860;28;20789;-84
2021/06/06 02:54:43;;;;;;;73.53;50.77;;;17.80;99.90;;;;;;5062579;28;20741;-84
2021/06/06 02:57:12;;;;;;;86.80;55.47;;;17.70;99.90;;;;;;5063750;28;20832;-84
2021/06/06 02:59:53;;;;;;;81.00;52.60;;;17.70;99.90;;;;;;5063605;28;20427;-84
2021/06/06 03:02:24;;;;;;;78.03;52.27;;;17.70;99.90;;;;;;5063371;28;20483;-84
2021/06/06 03:04:54;;;;;;;91.40;59.53;;;17.70;99.90;;;;;;5064444;28;20458;-84
2021/06/06 03:07:25;;;;;;;74.37;50.50;;;17.80;99.90;;;;;;5062183;28;20419;-84
2021/06/06 03:09:51;;;;;;;80.37;54.47;;;17.80;99.90;;;;;;5061545;28;20444;-84
2021/06/06 03:12:19;;;;;;;77.17;52.77;;;17.80;99.90;;;;;;5063398;28;20461;-84
2021/06/06 03:14:47;;;;;;;73.97;48.40;;;17.70;99.90;;;;;;5061935;28;20442;-84
2021/06/06 03:17:22;;;;;;;72.07;47.17;;;17.70;99.90;;;;;;5063378;28;20456;-84
2021/06/06 03:19:51;;;;;;;61.87;46.10;;;17.70;99.90;;;;;;5060979;28;20931;-84
2021/06/06 03:22:25;;;;;;;76.17;49.73;;;17.70;99.90;;;;;;5061082;28;20482;-84
2021/06/06 03:24:56;;;;;;;69.23;45.17;;;17.70;99.90;;;;;;5061689;28;20842;-84
2021/06/06 03:27:25;;;;;;;67.97;46.20;;;17.70;99.90;;;;;;5062952;28;20433;-85
2021/06/06 03:30:02;;;;;;;71.63;49.53;;;17.70;99.90;;;;;;5062305;28;20510;-85
2021/06/06 03:32:34;;;;;;;63.20;45.77;;;17.70;99.90;;;;;;5060825;28;20430;-84
2021/06/06 03:35:00;;;;;;;64.57;45.00;;;17.70;99.90;;;;;;5060796;28;20427;-84
2021/06/06 03:37:26;;;;;;;62.70;44.50;;;17.70;99.90;;;;;;5062177;28;20438;-84
2021/06/06 03:39:53;;;;;;;60.80;42.23;;;17.70;99.90;;;;;;5063102;28;20431;-84
2021/06/06 03:42:20;;;;;;;60.40;43.73;;;17.70;99.90;;;;;;5044184;28;20454;-84
2021/06/06 03:44:46;;;;;;;52.53;38.13;;;17.70;99.90;;;;;;5044780;28;20435;-84
2021/06/06 03:47:12;;;;;;;53.40;39.00;;;17.70;99.90;;;;;;5061460;28;20461;-84
2021/06/06 03:49:38;;;;;;;52.30;39.57;;;17.70;99.90;;;;;;5052664;28;20684;-84
2021/06/06 03:52:05;;;;;;;44.50;35.33;;;17.70;99.90;;;;;;5061326;28;20462;-84
2021/06/06 03:54:31;;;;;;;44.70;36.60;;;17.70;99.90;;;;;;5063506;28;20614;-84
2021/06/06 03:56:57;;;;;;;45.37;35.47;;;17.70;99.90;;;;;;5051218;28;20545;-84
2021/06/06 03:59:23;;;;;;;42.07;31.10;;;17.60;99.90;;;;;;5061649;28;20205;-85
2021/06/06 04:01:49;;;;;;;42.07;32.40;;;17.60;99.90;;;;;;5064284;28;20431;-84
2021/06/06 04:04:15;;;;;;;47.03;37.10;;;17.60;99.90;;;;;;5060414;28;20440;-84
2021/06/06 04:06:41;;;;;;;45.00;33.27;;;17.60;99.90;;;;;;5051819;28;20191;-84
2021/06/06 04:09:07;;;;;;;43.00;33.17;;;17.60;99.90;;;;;;5062319;28;20188;-84
2021/06/06 04:11:34;;;;;;;51.30;37.67;;;17.60;99.90;;;;;;5061312;28;20204;-84
2021/06/06 04:13:59;;;;;;;49.40;38.90;;;17.60;99.90;;;;;;5062185;28;20438;-84
2021/06/06 04:16:25;;;;;;;46.23;35.70;;;17.50;99.90;;;;;;5062539;28;20426;-85
2021/06/06 04:18:51;;;;;;;50.90;36.87;;;17.60;99.90;;;;;;5062719;28;20180;-84
2021/06/06 04:21:20;;;;;;;44.67;34.10;;;17.50;99.90;;;;;;5060544;28;20271;-84
2021/06/06 04:23:45;;;;;;;51.87;39.67;;;17.60;99.90;;;;;;5062003;28;20540;-84
2021/06/06 04:26:12;;;;;;;45.50;35.63;;;17.60;99.90;;;;;;5062123;28;20431;-84
2021/06/06 04:28:38;;;;;;;47.13;36.57;;;17.60;99.90;;;;;;5060102;28;20223;-84
2021/06/06 04:31:05;;;;;;;46.67;36.03;;;17.60;99.90;;;;;;5060835;28;20427;-84
2021/06/06 04:33:31;;;;;;;46.23;36.03;;;17.60;99.90;;;;;;5062590;28;20791;-84
2021/06/06 04:35:56;;;;;;;47.97;35.63;;;17.60;99.90;;;;;;5064437;28;20441;-85
2021/06/06 04:38:26;;;;;;;42.33;32.50;;;17.60;99.90;;;;;;5065591;28;20187;-85
2021/06/06 04:40:54;;;;;;;55.07;39.00;;;17.60;99.90;;;;;;5065593;28;20184;-84
2021/06/06 04:43:21;;;;;;;44.57;33.20;;;17.60;99.90;;;;;;5064725;28;20451;-84
2021/06/06 04:45:47;;;;;;;43.10;34.30;;;17.60;99.90;;;;;;5064820;28;20893;-84
2021/06/06 04:48:17;;;;;;;46.67;34.30;;;17.60;99.90;;;;;;5046012;28;20427;-85
2021/06/06 04:50:44;;;;;;;48.17;36.17;;;17.60;99.90;;;;;;5065215;28;20504;-84
2021/06/06 04:53:12;;;;;;;48.70;33.87;;;17.60;99.90;;;;;;5064851;28;20428;-84
2021/06/06 04:55:37;;;;;;;48.53;35.70;;;17.60;99.90;;;;;;5066568;28;20427;-84
2021/06/06 04:58:04;;;;;;;46.83;35.07;;;17.60;99.90;;;;;;5065435;28;21423;-84
2021/06/06 05:00:35;;;;;;;45.63;33.53;;;17.60;99.90;;;;;;5064172;28;20181;-84
2021/06/06 05:03:02;;;;;;;41.50;32.70;;;17.60;99.90;;;;;;5065612;28;20455;-84
2021/06/06 05:05:27;;;;;;;50.63;34.80;;;17.60;99.90;;;;;;5065281;28;20428;-84
2021/06/06 05:07:56;;;;;;;55.43;37.50;;;17.70;99.90;;;;;;5054022;28;20430;-84
2021/06/06 05:10:24;;;;;;;48.97;36.20;;;17.70;99.90;;;;;;5064723;28;20177;-84
2021/06/06 05:12:50;;;;;;;49.50;36.70;;;17.60;99.90;;;;;;5063141;28;20546;-84
2021/06/06 05:15:17;;;;;;;46.37;34.57;;;17.50;99.90;;;;;;5064049;28;20999;-84
2021/06/06 05:17:43;;;;;;;46.80;36.30;;;17.40;99.90;;;;;;5054503;28;20439;-84
2021/06/06 05:20:10;;;;;;;48.90;36.37;;;17.50;99.90;;;;;;5064686;28;20446;-84
2021/06/06 05:22:36;;;;;;;45.93;34.73;;;17.50;99.90;;;;;;5065334;28;20200;-84
2021/06/06 05:25:05;;;;;;;50.67;35.57;;;17.50;99.90;;;;;;5063612;28;20420;-84
2021/06/06 05:27:30;;;;;;;50.80;35.90;;;17.40;99.90;;;;;;5065450;28;20492;-84
2021/06/06 05:29:56;;;;;;;53.10;35.90;;;17.40;99.90;;;;;;5066058;28;20430;-84
2021/06/06 05:32:22;;;;;;;46.83;32.80;;;17.30;99.90;;;;;;5063744;28;20260;-84
2021/06/06 05:34:49;;;;;;;49.93;34.07;;;17.30;99.90;;;;;;5064685;28;20449;-84
2021/06/06 05:37:15;;;;;;;47.70;33.73;;;17.40;99.90;;;;;;5064218;28;20888;-84
2021/06/06 05:39:42;;;;;;;42.00;31.40;;;17.40;99.90;;;;;;5065587;28;20484;-84
2021/06/06 05:42:09;;;;;;;45.37;31.40;;;17.50;99.90;;;;;;5063073;28;20174;-84
2021/06/06 05:44:34;;;;;;;49.80;31.60;;;17.50;99.90;;;;;;5064978;28;20431;-84
2021/06/06 05:47:01;;;;;;;46.13;32.90;;;17.60;99.90;;;;;;5052492;28;20517;-84
2021/06/06 05:49:26;;;;;;;45.43;31.23;;;17.60;99.90;;;;;;5064929;28;20184;-84
2021/06/06 05:51:52;;;;;;;46.67;33.33;;;17.60;99.90;;;;;;5063493;28;21004;-84
2021/06/06 05:54:18;;;;;;;41.07;28.50;;;17.60;99.90;;;;;;5047471;28;20185;-84
2021/06/06 05:56:46;;;;;;;43.27;30.37;;;17.70;99.90;;;;;;5045320;28;20200;-84
2021/06/06 05:59:11;;;;;;;51.63;33.70;;;17.70;99.90;;;;;;5063749;28;20427;-84
2021/06/06 06:01:37;;;;;;;49.80;32.87;;;17.60;99.90;;;;;;5064424;28;20438;-84
2021/06/06 06:04:04;;;;;;;46.60;30.60;;;17.70;99.90;;;;;;5064664;28;20219;-83
2021/06/06 06:06:29;;;;;;;45.60;31.03;;;17.60;99.90;;;;;;5064154;28;20204;-83
2021/06/06 06:08:56;;;;;;;42.30;30.23;;;17.50;99.90;;;;;;5064396;28;20908;-84
2021/06/06 06:11:23;;;;;;;41.30;30.67;;;17.60;99.90;;;;;;5046410;28;20788;-84
2021/06/06 06:13:49;;;;;;;43.73;31.10;;;17.60;99.90;;;;;;5030271;28;20428;-84
2021/06/06 06:16:19;;;;;;;44.83;31.30;;;17.50;99.90;;;;;;5065228;28;20904;-84
2021/06/06 06:18:45;;;;;;;44.53;30.83;;;17.60;99.90;;;;;;5064618;28;20462;-84
2021/06/06 06:21:14;;;;;;;49.03;32.63;;;17.50;99.90;;;;;;5064380;28;20470;-84
2021/06/06 06:23:39;;;;;;;57.30;34.30;;;17.50;99.90;;;;;;5064580;28;20205;-84
2021/06/06 06:26:05;;;;;;;46.37;29.10;;;17.40;99.90;;;;;;5063124;28;21704;-84
2021/06/06 06:28:32;;;;;;;45.80;30.27;;;17.40;99.90;;;;;;5063466;28;20196;-84
2021/06/06 06:30:58;;;;;;;53.30;31.67;;;17.50;99.90;;;;;;5053335;28;20430;-84
2021/06/06 06:33:24;;;;;;;50.40;29.10;;;17.50;99.90;;;;;;5063512;28;20477;-84
2021/06/06 06:35:49;;;;;;;52.23;32.60;;;17.50;99.90;;;;;;5062537;28;20439;-84
2021/06/06 06:38:16;;;;;;;56.10;32.83;;;17.50;99.90;;;;;;5063778;28;20188;-84
2021/06/06 06:40:43;;;;;;;59.53;35.83;;;17.40;99.90;;;;;;5063522;28;20196;-84
2021/06/06 06:43:09;;;;;;;53.77;31.50;;;17.30;99.90;;;;;;5062468;28;20463;-84
2021/06/06 06:45:39;;;;;;;55.80;33.80;;;17.30;99.90;;;;;;5045897;28;20525;-84
2021/06/06 06:48:08;;;;;;;59.50;32.60;;;17.30;99.90;;;;;;5065204;28;20505;-84
2021/06/06 06:50:35;;;;;;;52.40;32.87;;;17.30;99.90;;;;;;5062369;28;21146;-84
2021/06/06 06:53:00;;;;;;;48.50;30.43;;;17.30;99.90;;;;;;5063382;28;20423;-84
2021/06/06 06:55:27;;;;;;;56.13;32.77;;;17.30;99.90;;;;;;5063497;28;20435;-84
2021/06/06 06:57:55;;;;;;;60.90;33.33;;;17.40;99.90;;;;;;5062641;28;20185;-84
2021/06/06 07:00:25;;;;;;;60.17;33.33;;;17.40;99.90;;;;;;5061591;28;20887;-84
2021/06/06 07:02:51;;;;;;;62.27;32.30;;;17.40;99.90;;;;;;5046481;28;20455;-84
2021/06/06 07:05:17;;;;;;;51.17;32.10;;;17.30;99.90;;;;;;5041424;28;20506;-84
2021/06/06 07:07:43;;;;;;;51.20;28.53;;;17.30;99.90;;;;;;5061387;28;20180;-84
2021/06/06 07:10:16;;;;;;;55.73;29.50;;;17.30;99.90;;;;;;5062828;28;20173;-84
2021/06/06 07:12:41;;;;;;;54.03;30.27;;;17.30;99.90;;;;;;5061071;28;20744;-84
2021/06/06 07:15:09;;;;;;;50.23;27.43;;;17.30;99.90;;;;;;5061146;28;20496;-84
2021/06/06 07:17:35;;;;;;;46.10;27.43;;;17.30;99.90;;;;;;5059202;28;20188;-84
2021/06/06 07:20:02;;;;;;;43.87;25.20;;;17.30;99.90;;;;;;5059613;28;20430;-83
2021/06/06 07:22:28;;;;;;;42.10;23.80;;;17.30;99.90;;;;;;5052254;28;20812;-83
2021/06/06 07:24:53;;;;;;;38.43;23.10;;;17.40;99.90;;;;;;5062965;28;20430;-82
2021/06/06 07:27:19;;;;;;;40.27;23.50;;;17.40;99.90;;;;;;5044888;28;20181;-83
2021/06/06 07:29:45;;;;;;;43.90;25.50;;;17.50;99.90;;;;;;5061800;28;20521;-82
2021/06/06 07:32:11;;;;;;;39.80;23.53;;;17.50;99.90;;;;;;5061819;28;20514;-83
2021/06/06 07:34:37;;;;;;;33.63;21.00;;;17.50;99.90;;;;;;5060944;28;20529;-83
2021/06/06 07:37:06;;;;;;;32.70;20.70;;;17.50;99.90;;;;;;5061683;28;20475;-82
2021/06/06 07:39:32;;;;;;;42.40;23.60;;;17.60;99.90;;;;;;5062641;28;20165;-83
2021/06/06 07:41:59;;;;;;;39.50;23.23;;;17.50;99.90;;;;;;5042628;28;20895;-83
2021/06/06 07:44:25;;;;;;;41.93;24.07;;;17.50;99.90;;;;;;5062577;28;20412;-83
2021/06/06 07:46:51;;;;;;;44.60;25.90;;;17.50;99.90;;;;;;5061242;28;20430;-83
2021/06/06 07:49:17;;;;;;;44.20;27.20;;;17.60;99.90;;;;;;5062218;28;20775;-83
2021/06/06 07:51:43;;;;;;;36.33;22.67;;;17.60;99.90;;;;;;5063909;28;20446;-84
2021/06/06 07:54:09;;;;;;;36.50;21.57;;;17.60;99.90;;;;;;5062898;28;20181;-83
2021/06/06 07:56:35;;;;;;;39.50;23.17;;;17.60;99.90;;;;;;5062127;28;20181;-84
2021/06/06 07:59:01;;;;;;;39.37;24.40;;;17.60;99.90;;;;;;5045119;28;20740;-84
2021/06/06 08:01:27;;;;;;;33.43;20.40;;;17.60;99.90;;;;;;5061093;28;20437;-84
2021/06/06 08:03:53;;;;;;;31.13;20.30;;;17.60;99.90;;;;;;5060085;28;20479;-84
2021/06/06 08:06:21;;;;;;;32.70;19.87;;;17.60;99.90;;;;;;5062128;28;20243;-84
2021/06/06 08:08:46;;;;;;;43.33;23.73;;;17.70;99.90;;;;;;5060049;28;20452;-84
2021/06/06 08:11:13;;;;;;;37.30;22.57;;;17.70;99.90;;;;;;5044433;28;20473;-84
2021/06/06 08:13:39;;;;;;;38.23;24.63;;;17.70;99.90;;;;;;5051749;28;20173;-84
2021/06/06 08:16:07;;;;;;;38.00;22.83;;;17.70;99.90;;;;;;5042713;28;20436;-84
2021/06/06 08:18:38;;;;;;;33.37;21.47;;;17.70;99.90;;;;;;5061638;28;20435;-84
2021/06/06 08:21:14;;;;;;;32.57;20.70;;;17.70;99.90;;;;;;5058984;28;20473;-84
2021/06/06 08:23:40;;;;;;;31.73;20.10;;;17.70;99.90;;;;;;5061043;28;20459;-84
2021/06/06 08:26:07;;;;;;;30.17;20.10;;;17.80;99.90;;;;;;5061548;28;20489;-83
2021/06/06 08:28:34;;;;;;;35.23;22.67;;;17.80;99.90;;;;;;5062380;28;20848;-84
2021/06/06 08:31:07;;;;;;;31.00;22.60;;;17.80;99.90;;;;;;5061277;28;20426;-83
2021/06/06 08:33:34;;;;;;;32.17;21.70;;;17.70;99.90;;;;;;5065510;28;20542;-88
2021/06/06 08:36:05;;;;;;;28.73;18.93;;;17.70;99.90;;;;;;5068913;28;20435;-89
2021/06/06 08:38:31;;;;;;;24.80;20.60;;;17.70;99.90;;;;;;5081332;28;20474;-90
2021/06/06 08:41:16;;;;;;;25.73;18.23;;;17.70;99.90;;;;;;5064688;28;20462;-90
2021/06/06 08:43:48;;;;;;;31.60;20.07;;;17.80;99.90;;;;;;5054303;28;20897;-91
2021/06/06 08:46:15;;;;;;;30.27;21.20;;;17.80;99.90;;;;;;5077575;28;20415;-90
2021/06/06 08:48:42;;;;;;;26.03;20.90;;;17.90;99.90;;;;;;5063229;28;20431;-91
2021/06/06 08:51:42;;;;;;;26.13;18.83;;;17.90;99.90;;;;;;5051465;28;20473;-89
2021/06/06 08:54:49;;;;;;;21.97;16.63;;;18.00;99.90;;;;;;5063375;28;20431;-90
2021/06/06 08:57:20;;;;;;;31.30;19.90;;;18.10;99.90;;;;;;4987720;28;20445;-89
2021/06/06 08:59:56;;;;;;;25.67;18.83;;;18.20;99.90;;;;;;5052587;28;20439;-89
2021/06/06 09:02:35;;;;;;;25.03;19.77;;;18.20;99.90;;;;;;5061140;28;20465;-89
2021/06/06 09:05:09;;;;;;;27.00;21.27;;;18.20;99.90;;;;;;5060463;28;20442;-89
2021/06/06 09:07:44;;;;;;;28.90;20.40;;;18.20;99.90;;;;;;5057634;23;20480;-74
2021/06/06 09:10:16;;;;;;;23.73;19.60;;;18.10;99.90;;;;;;5027552;28;20440;-74
2021/06/06 09:12:45;;;;;;;26.57;19.17;;;18.10;99.90;;;;;;5028879;28;20425;-75
2021/06/06 09:15:14;;;;;;;25.40;17.97;;;18.10;99.90;;;;;;5027981;28;20436;-75
2021/06/06 09:17:40;;;;;;;29.00;18.90;;;18.10;99.90;;;;;;5026175;28;20493;-75
2021/06/06 09:20:27;;;;;;;28.47;20.87;;;18.10;99.90;;;;;;5028514;28;20510;-74
2021/06/06 09:23:15;;;;;;;25.80;18.53;;;18.00;99.90;;;;;;5030301;28;20194;-75
2021/06/06 09:25:44;;;;;;;26.57;18.77;;;18.00;99.90;;;;;;5031830;28;20489;-75
2021/06/06 09:28:22;;;;;;;27.63;17.97;;;18.10;99.90;;;;;;5010032;28;20512;-75
2021/06/06 09:31:05;;;;;;;26.20;19.13;;;18.10;99.90;;;;;;5030531;28;20436;-75
2021/06/06 09:33:54;;;;;;;20.27;16.60;;;18.10;99.90;;;;;;5033305;28;20736;-75
2021/06/06 09:36:23;;;;;;;26.17;18.57;;;18.10;99.90;;;;;;5023300;28;20448;-75
2021/06/06 09:38:54;;;;;;;32.53;20.87;;;18.10;99.90;;;;;;5033057;28;20494;-75
2021/06/06 09:41:33;;;;;;;30.10;20.53;;;18.20;99.90;;;;;;5031658;28;20432;-75
2021/06/06 09:44:32;;;;;;;24.47;17.93;;;18.20;99.90;;;;;;5034662;28;20458;-75
2021/06/06 09:47:06;;;;;;;25.90;18.40;;;18.20;99.90;;;;;;5012302;28;20460;-75
2021/06/06 09:49:36;;;;;;;26.73;19.00;;;18.30;99.90;;;;;;5032034;28;20416;-75
2021/06/06 09:52:40;;;;;;;25.13;20.20;;;18.30;99.90;;;;;;5033242;28;20433;-71
2021/06/06 09:55:21;;;;;;;26.30;18.60;;;18.30;99.90;;;;;;5038518;28;20451;-75
2021/06/06 09:57:48;;;;;;;22.83;16.90;;;18.20;99.90;;;;;;5031960;28;20497;-74
2021/06/06 10:00:22;;;;;;;27.23;17.97;;;18.30;99.90;;;;;;5031275;28;20432;-74
2021/06/06 10:03:06;;;;;;;27.57;20.90;;;18.30;99.90;;;;;;5032295;28;20502;-74
2021/06/06 10:05:37;;;;;;;29.03;20.07;;;18.40;99.90;;;;;;5034120;28;20416;-75
2021/06/06 10:08:06;;;;;;;23.33;17.27;;;18.30;99.90;;;;;;5033068;28;20441;-74
2021/06/06 10:10:36;;;;;;;27.73;18.53;;;18.30;99.90;;;;;;5033643;28;20436;-74
2021/06/06 10:13:07;;;;;;;28.27;21.67;;;18.30;99.90;;;;;;5033020;28;20541;-75
2021/06/06 10:15:47;;;;;;;20.43;15.00;;;18.40;99.90;;;;;;5032573;28;20428;-74
2021/06/06 10:18:25;;;;;;;21.43;17.30;;;18.40;99.90;;;;;;5033417;28;20436;-74
2021/06/06 10:21:08;;;;;;;25.27;18.47;;;18.40;99.90;;;;;;5029501;28;20432;-74
2021/06/06 10:23:41;;;;;;;25.90;18.80;;;18.50;99.90;;;;;;5029324;28;20453;-75
2021/06/06 10:26:39;;;;;;;28.17;21.00;;;18.50;99.90;;;;;;5028762;28;20531;-74
2021/06/06 10:29:23;;;;;;;22.47;17.13;;;18.40;99.90;;;;;;5018616;28;21022;-74
2021/06/06 10:31:51;;;;;;;30.13;21.43;;;18.40;99.90;;;;;;5027718;28;20420;-75
2021/06/06 10:34:33;;;;;;;32.37;20.47;;;18.50;99.90;;;;;;5030749;28;20425;-74
2021/06/06 10:37:00;;;;;;;27.73;20.80;;;18.50;99.90;;;;;;5030710;28;20439;-75
2021/06/06 10:39:29;;;;;;;27.03;20.77;;;18.60;99.90;;;;;;5030719;28;20955;-75
2021/06/06 10:42:13;;;;;;;23.43;18.53;;;18.60;99.90;;;;;;5029735;28;20441;-75
2021/06/06 10:44:54;;;;;;;25.80;20.80;;;18.70;99.90;;;;;;5030330;28;20428;-74
2021/06/06 10:47:30;;;;;;;28.90;20.30;;;18.70;99.90;;;;;;5030078;28;20443;-75
2021/06/06 10:49:59;;;;;;;31.70;21.87;;;18.70;99.90;;;;;;5031140;28;20913;-75
2021/06/06 10:52:24;;;;;;;27.70;20.23;;;18.60;99.90;;;;;;5030876;28;20432;-75
2021/06/06 10:54:55;;;;;;;24.70;18.27;;;18.50;99.90;;;;;;5029567;28;20569;-75
2021/06/06 10:57:27;;;;;;;23.70;17.20;;;18.60;99.90;;;;;;5029800;28;20622;-75
2021/06/06 11:00:01;;;;;;;28.80;21.10;;;18.60;99.90;;;;;;5026450;28;20917;-75
2021/06/06 11:02:37;;;;;;;28.67;22.00;;;18.60;99.90;;;;;;5030012;28;20825;-75
2021/06/06 11:05:44;;;;;;;23.40;20.00;;;18.60;99.90;;;;;;5032615;28;20759;-75
2021/06/06 11:08:20;;;;;;;31.53;20.93;;;18.60;99.90;;;;;;5033028;28;20445;-74
2021/06/06 11:10:46;;;;;;;27.50;22.47;;;18.70;99.90;;;;;;5030224;28;20424;-75
2021/06/06 11:13:35;;;;;;;31.30;21.10;;;18.70;99.90;;;;;;5032667;28;20420;-75
2021/06/06 11:16:19;;;;;;;26.50;19.57;;;18.80;99.90;;;;;;5022075;28;20477;-74
2021/06/06 11:19:10;;;;;;;27.50;21.20;;;18.90;99.90;;;;;;5031393;28;20464;-75
2021/06/06 11:22:30;;;;;;;22.43;16.97;;;19.00;99.90;;;;;;5028337;28;20498;-75
2021/06/06 11:24:57;;;;;;;26.33;20.57;;;19.10;99.90;;;;;;5021837;28;20457;-75
2021/06/06 11:27:33;;;;;;;25.53;20.50;;;19.10;99.90;;;;;;5006844;28;20443;-74
2021/06/06 11:30:07;;;;;;;23.13;17.70;;;19.10;99.90;;;;;;5028731;28;20985;-74
2021/06/06 11:32:56;;;;;;;21.80;18.00;;;19.10;99.90;;;;;;5023390;28;20431;-75
2021/06/06 11:35:34;;;;;;;24.73;19.60;;;19.10;99.90;;;;;;5028098;28;20424;-74
2021/06/06 11:38:12;;;;;;;23.20;20.73;;;19.00;99.90;;;;;;5023056;28;20922;-74
2021/06/06 11:40:45;;;;;;;26.90;21.50;;;19.00;99.90;;;;;;5028299;28;20883;-74
2021/06/06 11:43:31;;;;;;;28.03;19.77;;;18.90;99.90;;;;;;5030389;28;20445;-74
2021/06/06 11:46:16;;;;;;;23.50;19.83;;;18.80;99.90;;;;;;5023581;28;20494;-75
2021/06/06 11:48:53;;;;;;;27.73;21.20;;;18.70;99.90;;;;;;5029897;28;20433;-75
2021/06/06 11:51:42;;;;;;;30.80;23.10;;;18.60;99.90;;;;;;5030690;28;20461;-74
2021/06/06 11:54:26;;;;;;;30.10;21.97;;;18.60;99.90;;;;;;5033015;28;20425;-75
2021/06/06 11:56:55;;;;;;;25.73;20.57;;;18.60;99.90;;;;;;5034798;28;20832;-74
2021/06/06 11:59:31;;;;;;;30.10;23.60;;;18.60;99.90;;;;;;5032609;28;20436;-75
2021/06/06 12:02:07;;;;;;;26.83;21.50;;;18.60;99.90;;;;;;5031570;28;20424;-74
2021/06/06 12:04:35;;;;;;;27.03;20.03;;;18.60;99.90;;;;;;5029751;28;20494;-75
2021/06/06 12:07:30;;;;;;;23.50;18.67;;;18.70;99.90;;;;;;5030637;28;20770;-75
2021/06/06 12:10:00;;;;;;;27.80;22.20;;;18.80;99.90;;;;;;5019001;28;22115;-75
2021/06/06 12:12:36;;;;;;;27.90;21.70;;;19.00;99.90;;;;;;5032410;28;20531;-74
2021/06/06 12:15:37;;;;;;;25.03;20.30;;;19.10;99.90;;;;;;5031394;28;20925;-74
2021/06/06 12:18:08;;;;;;;29.37;22.17;;;19.00;99.90;;;;;;5031504;28;20935;-74
2021/06/06 12:20:36;;;;;;;29.40;21.13;;;18.90;99.90;;;;;;5029006;28;20467;-74
2021/06/06 12:23:10;;;;;;;26.90;21.00;;;18.80;99.90;;;;;;5026845;28;20452;-74
2021/06/06 12:25:36;;;;;;;34.63;22.07;;;18.80;99.90;;;;;;5030183;28;20475;-75
2021/06/06 12:28:13;;;;;;;33.13;23.53;;;18.80;99.90;;;;;;5034299;28;20444;-75
2021/06/06 12:31:02;;;;;;;29.30;23.37;;;18.70;99.90;;;;;;5037995;28;20420;-76
2021/06/06 12:33:38;;;;;;;29.00;20.90;;;18.60;99.90;;;;;;5041865;28;20433;-76
2021/06/06 12:36:17;;;;;;;24.40;17.30;;;18.60;99.90;;;;;;5032851;28;20424;-75
2021/06/06 12:38:45;;;;;;;28.83;20.93;;;18.60;99.90;;;;;;5034032;28;20424;-76
2021/06/06 12:41:12;;;;;;;33.60;24.00;;;18.60;99.90;;;;;;5036536;28;20459;-76
2021/06/06 12:43:42;;;;;;;32.80;21.83;;;18.60;99.90;;;;;;5011229;28;20946;-76
2021/06/06 12:46:10;;;;;;;32.27;22.30;;;18.60;99.90;;;;;;5035368;28;20431;-75
2021/06/06 12:48:58;;;;;;;27.80;20.57;;;18.70;99.90;;;;;;5034306;28;20551;-75
2021/06/06 12:51:36;;;;;;;34.73;24.93;;;18.80;99.90;;;;;;5036780;28;20416;-75